Time;durP1;ratioP1;P1;durP2;ratioP2;P2;SDS_P1;SDS_P2;PMS_P1;PMS_P2;Temp;Humidity;BMP_temperature;BMP_pressure;BME280_temperature;BME280_humidity;BME280_pressure;Samples;Min_cycle;Max_cycle;Signal;HPM_P1;HPM_P2
2024/03/16 00:00:06;;;;;;;1.53;1.00;;;11.30;99.90;;;;;;5010527;28;20608;-84
2024/03/16 00:02:33;;;;;;;1.13;0.73;;;11.10;99.90;;;;;;5006492;28;20444;-83
2024/03/16 00:04:58;;;;;;;0.70;0.65;;;11.10;99.90;;;;;;5026484;28;20557;-82
2024/03/16 00:07:24;;;;;;;0.80;0.70;;;11.30;99.90;;;;;;5018003;28;20263;-82
2024/03/16 00:09:49;;;;;;;1.60;0.80;;;10.90;99.90;;;;;;5017898;28;20193;-82
2024/03/16 00:12:15;;;;;;;1.00;0.80;;;11.40;99.90;;;;;;5015249;28;20201;-82
2024/03/16 00:14:40;;;;;;;0.80;0.70;;;11.40;99.90;;;;;;5015346;28;20254;-82
2024/03/16 00:17:06;;;;;;;0.93;0.83;;;11.30;99.90;;;;;;5017111;28;20220;-82
2024/03/16 00:19:31;;;;;;;0.90;0.70;;;11.50;99.90;;;;;;5012273;28;20194;-83
2024/03/16 00:21:57;;;;;;;1.20;0.70;;;11.30;99.90;;;;;;5015485;28;20629;-82
2024/03/16 00:24:23;;;;;;;1.10;0.60;;;10.50;99.90;;;;;;5009375;28;20218;-82
2024/03/16 00:26:48;;;;;;;0.70;0.67;;;11.10;99.90;;;;;;5010301;28;20210;-83
2024/03/16 00:29:14;;;;;;;1.00;0.63;;;11.30;99.90;;;;;;5015649;28;20653;-82
2024/03/16 00:31:39;;;;;;;0.90;0.60;;;11.00;99.90;;;;;;5013910;28;20213;-83
2024/03/16 00:34:05;;;;;;;0.90;0.53;;;11.10;99.90;;;;;;5009837;28;20189;-82
2024/03/16 00:36:30;;;;;;;0.80;0.60;;;11.10;99.90;;;;;;5018192;28;20229;-82
2024/03/16 00:38:56;;;;;;;0.70;0.60;;;11.30;99.90;;;;;;5008608;28;20575;-82
2024/03/16 00:41:23;;;;;;;0.85;0.60;;;11.30;99.90;;;;;;5013809;28;20193;-83
2024/03/16 00:43:48;;;;;;;0.70;0.50;;;10.60;99.90;;;;;;5009651;28;20190;-83
2024/03/16 00:46:14;;;;;;;3.53;0.60;;;10.90;99.90;;;;;;5012368;28;20213;-83
2024/03/16 00:48:39;;;;;;;0.70;0.70;;;11.30;99.90;;;;;;5011212;28;20217;-83
2024/03/16 00:51:05;;;;;;;2.00;0.80;;;11.00;99.90;;;;;;5008180;28;20200;-83
2024/03/16 00:53:30;;;;;;;0.80;0.50;;;10.80;99.90;;;;;;5007085;28;20196;-83
2024/03/16 00:55:56;;;;;;;0.97;0.60;;;10.70;99.90;;;;;;5003700;28;20207;-82
2024/03/16 00:58:21;;;;;;;0.87;0.70;;;10.70;99.90;;;;;;5017348;28;20195;-83
2024/03/16 01:00:47;;;;;;;0.90;0.60;;;10.90;99.90;;;;;;5017453;28;20190;-83
2024/03/16 01:03:12;;;;;;;0.70;0.60;;;10.60;99.90;;;;;;5003522;28;20258;-83
2024/03/16 01:05:38;;;;;;;0.90;0.60;;;11.10;99.90;;;;;;5008410;28;20212;-82
2024/03/16 01:08:04;;;;;;;0.80;0.57;;;10.40;99.90;;;;;;5013233;28;20197;-82
2024/03/16 01:10:29;;;;;;;0.77;0.63;;;10.80;99.90;;;;;;5022289;28;20633;-82
2024/03/16 01:12:55;;;;;;;1.13;0.80;;;10.50;99.90;;;;;;5010891;28;20661;-82
2024/03/16 01:15:23;;;;;;;0.90;0.70;;;10.50;99.90;;;;;;5012376;28;20197;-82
2024/03/16 01:17:48;;;;;;;1.02;0.60;;;10.30;99.90;;;;;;5009663;28;20186;-82
2024/03/16 01:20:14;;;;;;;1.23;0.60;;;10.50;99.90;;;;;;5015302;28;20257;-83
2024/03/16 01:22:40;;;;;;;1.63;0.70;;;10.90;99.90;;;;;;5012613;28;20243;-83
2024/03/16 01:25:05;;;;;;;1.87;1.13;;;10.60;99.90;;;;;;5012291;28;20204;-84
2024/03/16 01:27:33;;;;;;;0.70;0.60;;;10.00;99.90;;;;;;5014528;28;20684;-83
2024/03/16 01:29:59;;;;;;;0.68;0.50;;;11.00;99.90;;;;;;5009090;28;20658;-83
2024/03/16 01:32:25;;;;;;;1.73;0.70;;;10.30;99.90;;;;;;5011453;28;20221;-83
2024/03/16 01:34:50;;;;;;;0.70;0.70;;;10.10;99.90;;;;;;5022744;28;20233;-83
2024/03/16 01:37:17;;;;;;;1.53;0.60;;;10.60;99.90;;;;;;5010420;28;20221;-83
2024/03/16 01:39:45;;;;;;;0.60;0.50;;;10.70;99.90;;;;;;5009920;28;20224;-84
2024/03/16 01:42:12;;;;;;;0.70;0.60;;;10.70;99.90;;;;;;5008580;28;20188;-84
2024/03/16 01:44:38;;;;;;;0.80;0.60;;;10.60;99.90;;;;;;5010660;28;20270;-82
2024/03/16 01:47:09;;;;;;;0.70;0.60;;;10.60;99.90;;;;;;5012828;28;20209;-83
2024/03/16 01:49:35;;;;;;;1.00;0.60;;;10.60;99.90;;;;;;5010316;28;20431;-83
2024/03/16 01:52:00;;;;;;;2.10;1.10;;;10.80;99.90;;;;;;5015441;28;20195;-84
2024/03/16 01:54:26;;;;;;;1.27;0.60;;;10.40;99.90;;;;;;5013247;28;20658;-82
2024/03/16 01:56:51;;;;;;;0.73;0.50;;;10.40;99.90;;;;;;5010277;28;20315;-81
2024/03/16 01:59:17;;;;;;;1.10;0.60;;;10.60;99.90;;;;;;5004823;28;20197;-83
2024/03/16 02:01:42;;;;;;;2.83;0.70;;;11.10;99.90;;;;;;5011685;28;20247;-82
2024/03/16 02:04:08;;;;;;;1.93;0.50;;;11.10;99.90;;;;;;5007093;28;20550;-83
2024/03/16 02:06:33;;;;;;;0.80;0.57;;;10.60;99.90;;;;;;5010603;28;20225;-83
2024/03/16 02:09:00;;;;;;;3.60;0.70;;;11.00;99.90;;;;;;5006178;28;20196;-83
2024/03/16 02:11:25;;;;;;;0.60;0.50;;;10.80;99.90;;;;;;5005807;28;20192;-83
2024/03/16 02:13:51;;;;;;;1.27;0.57;;;11.00;99.90;;;;;;5008257;28;20207;-83
2024/03/16 02:16:16;;;;;;;0.90;0.60;;;10.80;99.90;;;;;;5013684;28;20210;-82
2024/03/16 02:18:42;;;;;;;1.03;0.50;;;10.20;99.90;;;;;;5011601;28;20205;-83
2024/03/16 02:21:09;;;;;;;0.90;0.60;;;10.90;99.90;;;;;;5013126;28;20252;-82
2024/03/16 02:23:35;;;;;;;0.70;0.50;;;10.60;99.90;;;;;;5015984;28;20201;-83
2024/03/16 02:26:01;;;;;;;1.10;0.60;;;10.80;99.90;;;;;;5013106;28;20312;-82
2024/03/16 02:28:26;;;;;;;1.20;0.60;;;10.50;99.90;;;;;;5023045;28;20436;-82
2024/03/16 02:30:52;;;;;;;1.13;0.63;;;10.90;99.90;;;;;;5013495;28;20196;-82
2024/03/16 02:33:18;;;;;;;0.70;0.60;;;10.80;99.90;;;;;;5008120;28;20203;-82
2024/03/16 02:35:43;;;;;;;0.80;0.70;;;10.10;99.90;;;;;;5006390;28;20244;-82
2024/03/16 02:38:09;;;;;;;1.03;0.90;;;10.60;99.90;;;;;;5011827;28;20616;-82
2024/03/16 02:40:36;;;;;;;2.30;0.50;;;10.80;99.90;;;;;;5007039;28;20206;-82
2024/03/16 02:43:03;;;;;;;1.05;0.50;;;10.80;99.90;;;;;;5009098;28;20606;-83
2024/03/16 02:45:28;;;;;;;0.70;0.50;;;10.60;99.90;;;;;;5011988;28;20248;-82
2024/03/16 02:47:54;;;;;;;0.80;0.50;;;10.80;99.90;;;;;;5034236;28;20181;-83
2024/03/16 02:50:19;;;;;;;0.70;0.40;;;11.00;99.90;;;;;;5015026;28;21200;-82
2024/03/16 02:52:45;;;;;;;0.80;0.60;;;11.00;99.90;;;;;;5035776;28;20192;-82
2024/03/16 02:55:11;;;;;;;4.20;0.60;;;10.60;99.90;;;;;;5022645;28;20667;-82
2024/03/16 02:57:36;;;;;;;1.85;0.60;;;10.80;99.90;;;;;;5021247;28;20207;-81
2024/03/16 03:00:07;;;;;;;0.80;0.70;;;10.90;99.90;;;;;;5024959;28;20221;-82
2024/03/16 03:02:33;;;;;;;1.65;0.70;;;10.60;99.90;;;;;;5024728;28;20193;-83
2024/03/16 03:04:58;;;;;;;0.67;0.50;;;10.50;99.90;;;;;;5019290;28;20213;-83
2024/03/16 03:07:24;;;;;;;0.70;0.60;;;10.80;99.90;;;;;;5014531;28;20212;-83
2024/03/16 03:09:49;;;;;;;1.00;0.60;;;10.50;99.90;;;;;;5014525;28;20188;-83
2024/03/16 03:12:15;;;;;;;0.80;0.60;;;10.60;99.90;;;;;;5011831;28;20690;-83
2024/03/16 03:14:41;;;;;;;0.70;0.50;;;10.50;99.90;;;;;;5029358;28;20315;-83
2024/03/16 03:17:07;;;;;;;0.70;0.60;;;10.60;99.90;;;;;;5025747;28;20220;-83
2024/03/16 03:19:32;;;;;;;1.25;0.55;;;10.50;99.90;;;;;;5014838;28;20190;-83
2024/03/16 03:21:58;;;;;;;0.73;0.60;;;10.30;99.90;;;;;;5013608;28;20207;-82
2024/03/16 03:24:23;;;;;;;1.07;0.50;;;10.50;99.90;;;;;;5031850;28;20217;-82
2024/03/16 03:26:49;;;;;;;1.70;0.70;;;10.00;99.90;;;;;;5014085;28;20202;-83
2024/03/16 03:29:14;;;;;;;1.20;0.60;;;10.10;99.90;;;;;;5010896;28;20204;-82
2024/03/16 03:31:40;;;;;;;1.50;0.50;;;10.80;99.90;;;;;;5013635;28;20194;-83
2024/03/16 03:34:05;;;;;;;1.43;0.80;;;10.10;99.90;;;;;;5011239;28;20279;-83
2024/03/16 03:36:32;;;;;;;0.60;0.50;;;10.80;99.90;;;;;;5028943;28;20674;-83
2024/03/16 03:38:57;;;;;;;1.70;0.60;;;10.80;99.90;;;;;;5008843;28;20215;-82
2024/03/16 03:41:23;;;;;;;1.33;0.60;;;10.70;99.90;;;;;;5028847;28;20617;-84
2024/03/16 03:43:57;;;;;;;0.63;0.50;;;11.00;99.90;;;;;;5015212;28;20339;-83
2024/03/16 03:46:39;;;;;;;0.80;0.50;;;11.20;99.90;;;;;;5025147;28;20217;-83
2024/03/16 03:49:11;;;;;;;1.50;0.80;;;10.60;99.90;;;;;;5016019;28;20280;-82
2024/03/16 03:51:40;;;;;;;1.42;0.60;;;10.60;99.90;;;;;;5008102;28;20196;-82
2024/03/16 03:54:08;;;;;;;1.58;0.50;;;10.80;99.90;;;;;;5010212;28;20205;-82
2024/03/16 03:56:34;;;;;;;0.90;0.70;;;10.90;99.90;;;;;;5018987;28;20232;-82
2024/03/16 03:59:00;;;;;;;0.63;0.50;;;11.10;99.90;;;;;;5021762;28;20198;-82
2024/03/16 04:01:26;;;;;;;1.58;0.65;;;11.10;99.90;;;;;;5030978;28;20253;-83
2024/03/16 04:03:51;;;;;;;1.30;0.70;;;10.90;99.90;;;;;;5018607;28;20212;-81
2024/03/16 04:06:17;;;;;;;1.40;0.60;;;10.30;99.90;;;;;;5014308;28;20659;-83
2024/03/16 04:08:42;;;;;;;1.77;0.80;;;11.30;99.90;;;;;;5014349;28;20184;-83
2024/03/16 04:11:08;;;;;;;0.97;0.70;;;11.20;99.90;;;;;;5011185;28;20266;-82
2024/03/16 04:13:33;;;;;;;2.57;0.87;;;10.60;99.90;;;;;;5013546;28;20552;-82
2024/03/16 04:15:59;;;;;;;1.10;0.67;;;10.90;99.90;;;;;;5011732;28;20607;-82
2024/03/16 04:18:24;;;;;;;1.43;0.90;;;11.10;99.90;;;;;;5012687;28;20201;-81
2024/03/16 04:20:50;;;;;;;0.70;0.70;;;10.70;99.90;;;;;;5014827;28;20269;-82
2024/03/16 04:23:15;;;;;;;1.00;0.70;;;10.50;99.90;;;;;;5010903;28;20305;-82
2024/03/16 04:25:41;;;;;;;1.27;0.93;;;11.00;99.90;;;;;;5013090;28;20228;-83
2024/03/16 04:28:08;;;;;;;1.87;1.03;;;11.20;99.90;;;;;;5013714;28;20194;-82
2024/03/16 04:30:33;;;;;;;0.80;0.73;;;11.40;99.90;;;;;;5017297;28;20868;-82
2024/03/16 04:32:59;;;;;;;1.37;0.87;;;11.20;99.90;;;;;;5013642;28;20277;-82
2024/03/16 04:35:24;;;;;;;1.13;0.80;;;11.50;99.90;;;;;;5011726;28;20190;-82
2024/03/16 04:37:51;;;;;;;1.30;0.80;;;11.50;99.90;;;;;;5010278;28;20658;-82
2024/03/16 04:40:18;;;;;;;0.90;0.70;;;11.40;99.90;;;;;;5009073;28;20205;-82
2024/03/16 04:42:44;;;;;;;2.28;1.08;;;11.60;99.90;;;;;;5007207;28;20186;-82
2024/03/16 04:45:09;;;;;;;4.30;1.57;;;11.30;99.90;;;;;;5010483;28;20582;-82
2024/03/16 04:47:35;;;;;;;1.10;0.70;;;11.60;99.90;;;;;;5023587;28;20204;-82
2024/03/16 04:50:00;;;;;;;1.07;0.77;;;10.90;99.90;;;;;;5004531;28;20682;-82
2024/03/16 04:52:26;;;;;;;2.20;0.90;;;10.60;99.90;;;;;;5010753;28;20264;-81
2024/03/16 04:54:51;;;;;;;1.00;0.80;;;10.60;99.90;;;;;;5006945;28;20287;-83
2024/03/16 04:57:18;;;;;;;1.03;0.80;;;10.50;99.90;;;;;;5013079;28;20296;-82
2024/03/16 04:59:44;;;;;;;0.95;0.70;;;10.90;99.90;;;;;;5013402;28;20247;-82
2024/03/16 05:02:09;;;;;;;1.70;0.90;;;10.50;99.90;;;;;;5012112;28;20197;-82
2024/03/16 05:04:34;;;;;;;0.90;0.80;;;10.50;99.90;;;;;;5010141;28;20263;-82
2024/03/16 05:07:00;;;;;;;1.00;0.80;;;10.80;99.90;;;;;;5011238;28;20706;-82
2024/03/16 05:09:25;;;;;;;1.87;0.77;;;10.80;99.90;;;;;;5011527;28;20187;-83
2024/03/16 05:11:51;;;;;;;2.43;0.90;;;11.20;99.90;;;;;;5011338;28;20194;-82
2024/03/16 05:14:17;;;;;;;1.00;0.80;;;10.40;99.90;;;;;;5012753;28;21229;-82
2024/03/16 05:16:42;;;;;;;0.87;0.87;;;10.20;99.90;;;;;;5013885;28;20638;-83
2024/03/16 05:19:08;;;;;;;0.80;0.80;;;11.00;99.90;;;;;;5009865;28;20189;-82
2024/03/16 05:21:36;;;;;;;2.13;1.30;;;10.90;99.90;;;;;;5010628;28;20217;-83
2024/03/16 05:24:02;;;;;;;1.05;0.70;;;10.50;99.90;;;;;;5010631;28;20188;-83
2024/03/16 05:26:29;;;;;;;1.00;0.90;;;11.10;99.90;;;;;;5008821;28;20439;-82
2024/03/16 05:28:55;;;;;;;1.23;1.00;;;11.00;99.90;;;;;;5006488;28;20184;-83
2024/03/16 05:31:20;;;;;;;1.70;0.80;;;10.40;99.90;;;;;;5012890;28;20292;-82
2024/03/16 05:33:48;;;;;;;1.10;0.73;;;11.00;99.90;;;;;;5007458;28;20267;-82
2024/03/16 05:36:14;;;;;;;2.08;1.10;;;10.50;99.90;;;;;;5011164;28;20211;-83
2024/03/16 05:38:43;;;;;;;1.23;0.87;;;10.30;99.90;;;;;;5009485;28;20615;-83
2024/03/16 05:41:09;;;;;;;1.75;0.80;;;11.00;99.90;;;;;;5008394;28;20667;-83
2024/03/16 05:43:35;;;;;;;2.47;1.20;;;10.80;99.90;;;;;;5018843;28;20196;-83
2024/03/16 05:46:01;;;;;;;2.17;0.90;;;11.30;99.90;;;;;;5007773;28;20575;-83
2024/03/16 05:48:27;;;;;;;0.80;0.80;;;10.90;99.90;;;;;;5008413;28;20963;-83
2024/03/16 05:50:53;;;;;;;2.05;0.75;;;11.00;99.90;;;;;;5029211;28;20535;-83
2024/03/16 05:53:19;;;;;;;1.50;0.90;;;11.00;99.90;;;;;;5011924;28;20706;-83
2024/03/16 05:55:45;;;;;;;0.70;0.70;;;10.30;99.90;;;;;;5010683;28;20216;-83
2024/03/16 05:58:11;;;;;;;2.20;0.70;;;11.00;99.90;;;;;;5011194;28;20199;-83
2024/03/16 06:00:39;;;;;;;1.37;0.60;;;12.10;99.90;;;;;;5023174;28;20455;-82
2024/03/16 06:03:05;;;;;;;2.25;0.88;;;11.50;99.90;;;;;;5011181;28;20225;-83
2024/03/16 06:05:35;;;;;;;1.30;1.03;;;11.00;99.90;;;;;;5008330;28;20204;-82
2024/03/16 06:08:02;;;;;;;1.55;0.70;;;11.40;99.90;;;;;;5010349;28;20196;-82
2024/03/16 06:10:28;;;;;;;0.88;0.70;;;11.30;99.90;;;;;;5008151;28;20191;-82
2024/03/16 06:12:53;;;;;;;1.10;0.77;;;11.10;99.90;;;;;;5008674;28;20706;-82
2024/03/16 06:15:19;;;;;;;1.57;1.47;;;11.20;99.90;;;;;;5005643;28;21234;-83
2024/03/16 06:17:44;;;;;;;0.70;0.70;;;11.00;99.90;;;;;;5014646;28;20221;-83
2024/03/16 06:20:13;;;;;;;0.80;0.80;;;11.40;99.90;;;;;;5013111;28;20273;-83
2024/03/16 06:22:39;;;;;;;1.30;0.70;;;11.10;99.90;;;;;;5015343;28;20194;-83
2024/03/16 06:25:04;;;;;;;1.27;1.17;;;11.00;99.90;;;;;;5011504;28;20206;-83
2024/03/16 06:27:30;;;;;;;0.80;0.80;;;11.30;99.90;;;;;;5018019;28;20243;-82
2024/03/16 06:29:57;;;;;;;1.73;0.60;;;11.40;99.90;;;;;;5022912;28;20444;-83
2024/03/16 06:32:22;;;;;;;1.10;0.80;;;11.70;99.90;;;;;;5015242;28;20224;-82
2024/03/16 06:34:48;;;;;;;0.93;0.80;;;11.70;99.90;;;;;;5013074;28;20551;-83
2024/03/16 06:37:15;;;;;;;1.10;0.70;;;11.60;99.90;;;;;;5011625;28;20205;-83
2024/03/16 06:39:41;;;;;;;1.60;0.90;;;11.60;99.90;;;;;;5016410;28;20204;-83
2024/03/16 06:42:06;;;;;;;1.00;0.80;;;12.00;99.90;;;;;;5011846;28;20219;-82
2024/03/16 06:44:32;;;;;;;1.30;0.83;;;11.20;99.90;;;;;;5012276;28;20969;-83
2024/03/16 06:46:58;;;;;;;3.90;3.10;;;11.60;99.90;;;;;;5015000;28;20202;-82
2024/03/16 06:49:23;;;;;;;1.57;0.80;;;11.60;99.90;;;;;;5010524;28;20193;-86
2024/03/16 06:51:49;;;;;;;0.90;0.70;;;11.80;99.90;;;;;;5014808;28;20232;-85
2024/03/16 06:54:14;;;;;;;1.47;0.70;;;11.80;99.90;;;;;;5020607;28;20197;-85
2024/03/16 06:56:40;;;;;;;1.17;0.73;;;11.80;99.90;;;;;;5029643;28;20215;-83
2024/03/16 06:59:05;;;;;;;1.00;0.70;;;12.10;99.90;;;;;;5017066;28;20229;-84
2024/03/16 07:01:31;;;;;;;1.23;0.77;;;11.80;99.90;;;;;;5021325;28;20653;-85
2024/03/16 07:03:56;;;;;;;1.57;0.77;;;12.00;99.90;;;;;;5011562;28;20440;-85
2024/03/16 07:09:57;;;;;;;1.25;0.60;;;12.50;99.90;;;;;;4963066;28;20215;-82
2024/03/16 07:12:29;;;;;;;1.08;0.60;;;12.50;99.90;;;;;;4997805;28;20203;-82
2024/03/16 07:14:55;;;;;;;2.28;0.80;;;10.60;99.90;;;;;;5047460;28;20784;-81
2024/03/16 07:20:59;;;;;;;2.05;0.98;;;12.60;99.90;;;;;;5034987;28;20219;-84
2024/03/16 07:29:25;;;;;;;3.35;1.20;;;;;;;;;;6168971;22;20173;-84
2024/03/16 07:32:12;;;;;;;3.95;0.80;;;11.90;99.90;;;;;;5089432;28;20213;-84
2024/03/16 07:34:38;;;;;;;2.13;0.95;;;12.10;99.90;;;;;;5068003;28;20182;-83
2024/03/16 07:37:04;;;;;;;1.77;1.17;;;12.10;99.90;;;;;;5063050;28;20211;-83
2024/03/16 07:39:30;;;;;;;2.80;1.20;;;;;;;;;;5065697;28;20338;-83
2024/03/16 07:41:56;;;;;;;0.98;0.80;;;12.20;99.90;;;;;;5082090;28;20447;-83
2024/03/16 07:44:21;;;;;;;2.10;0.83;;;12.20;99.90;;;;;;5067470;28;20201;-82
2024/03/16 07:46:48;;;;;;;1.90;1.20;;;12.10;99.90;;;;;;5066858;28;20287;-83
2024/03/16 07:49:14;;;;;;;1.10;0.80;;;11.80;99.90;;;;;;5067681;28;20197;-83
2024/03/16 07:51:39;;;;;;;1.70;0.80;;;11.90;99.90;;;;;;5066257;28;20257;-83
2024/03/16 07:54:08;;;;;;;2.40;1.23;;;11.60;99.90;;;;;;5069593;28;20431;-83
2024/03/16 07:56:34;;;;;;;1.88;1.48;;;11.40;99.90;;;;;;5064670;28;20527;-83
2024/03/16 07:59:00;;;;;;;2.17;1.30;;;12.10;99.90;;;;;;5058496;28;20675;-84
2024/03/16 08:01:25;;;;;;;1.43;1.10;;;12.10;99.90;;;;;;5068332;28;20325;-82
2024/03/16 08:03:51;;;;;;;2.30;0.90;;;11.40;99.90;;;;;;5059699;28;20197;-82
2024/03/16 08:06:16;;;;;;;1.77;1.00;;;12.00;99.90;;;;;;5063825;28;20217;-83
2024/03/16 08:08:42;;;;;;;1.43;0.90;;;11.80;99.90;;;;;;5065718;28;20191;-83
2024/03/16 08:11:07;;;;;;;0.80;0.70;;;11.80;99.90;;;;;;5063352;28;20299;-82
2024/03/16 08:13:34;;;;;;;1.60;0.90;;;11.40;99.90;;;;;;5062014;28;20509;-82
2024/03/16 08:16:01;;;;;;;1.13;0.98;;;11.40;99.90;;;;;;5064627;28;20200;-82
2024/03/16 08:18:26;;;;;;;1.45;1.00;;;12.30;99.90;;;;;;5060977;28;20491;-81
2024/03/16 08:20:58;;;;;;;2.17;1.20;;;12.80;99.90;;;;;;5059354;28;20196;-82
2024/03/16 08:23:24;;;;;;;1.33;1.23;;;11.90;99.90;;;;;;5066032;28;20195;-82
2024/03/16 08:25:53;;;;;;;2.70;1.38;;;12.30;99.90;;;;;;5066397;28;20639;-81
2024/03/16 08:28:19;;;;;;;1.85;1.30;;;12.20;99.90;;;;;;5062466;28;20538;-82
2024/03/16 08:30:44;;;;;;;2.97;1.13;;;11.90;99.90;;;;;;5065524;28;20201;-83
2024/03/16 08:33:10;;;;;;;1.20;0.90;;;12.00;99.90;;;;;;5062298;28;20719;-82
2024/03/16 08:35:35;;;;;;;2.20;0.90;;;11.60;99.90;;;;;;5060626;28;20212;-82
2024/03/16 08:38:01;;;;;;;6.73;1.23;;;12.00;99.90;;;;;;5063566;28;20564;-83
2024/03/16 08:40:26;;;;;;;2.73;1.37;;;12.40;99.90;;;;;;5059617;28;20187;-81
2024/03/16 08:42:53;;;;;;;16.57;14.87;;;12.70;99.90;;;;;;5057106;28;20199;-82
2024/03/16 08:45:18;;;;;;;2.50;1.75;;;12.60;99.90;;;;;;5060002;28;20275;-81
2024/03/16 08:47:44;;;;;;;0.87;0.80;;;13.50;99.90;;;;;;5062616;28;20645;-81
2024/03/16 08:50:10;;;;;;;1.75;1.02;;;13.50;99.90;;;;;;5061527;28;20196;-81
2024/03/16 08:52:36;;;;;;;1.90;1.13;;;13.60;99.90;;;;;;5064288;28;20180;-81
2024/03/16 08:55:03;;;;;;;2.20;0.80;;;14.20;99.90;;;;;;5065661;28;20193;-83
2024/03/16 08:57:29;;;;;;;0.90;0.70;;;14.20;99.90;;;;;;5070399;28;20216;-83
2024/03/16 08:59:54;;;;;;;0.77;0.60;;;14.10;99.90;;;;;;5064417;28;20193;-86
2024/03/16 09:02:20;;;;;;;1.53;0.80;;;14.30;99.90;;;;;;5064406;28;20439;-84
2024/03/16 09:04:51;;;;;;;1.35;1.00;;;14.10;99.90;;;;;;5069352;28;20683;-86
2024/03/16 09:07:16;;;;;;;2.25;1.40;;;14.80;99.90;;;;;;5070449;28;20230;-86
2024/03/16 09:09:42;;;;;;;2.80;1.27;;;15.00;99.90;;;;;;5082763;28;20181;-85
2024/03/16 09:12:09;;;;;;;1.83;1.10;;;15.60;99.90;;;;;;5067250;28;20178;-85
2024/03/16 09:14:35;;;;;;;1.33;0.95;;;15.30;99.90;;;;;;5069804;28;20185;-86
2024/03/16 09:17:01;;;;;;;1.20;1.10;;;15.00;99.90;;;;;;5067547;28;20330;-85
2024/03/16 09:19:27;;;;;;;1.00;0.90;;;14.90;99.90;;;;;;5074834;28;20201;-84
2024/03/16 09:21:52;;;;;;;1.70;0.90;;;14.80;99.90;;;;;;5067910;28;20272;-84
2024/03/16 09:24:18;;;;;;;1.10;0.70;;;15.50;99.90;;;;;;5072010;28;20196;-84
2024/03/16 09:26:44;;;;;;;0.90;0.70;;;16.20;99.90;;;;;;5076840;28;20199;-85
2024/03/16 09:29:10;;;;;;;1.52;0.73;;;16.30;99.90;;;;;;5071761;28;20197;-84
2024/03/16 09:31:35;;;;;;;1.10;0.80;;;17.30;99.90;;;;;;5070060;28;20196;-86
2024/03/16 09:34:03;;;;;;;0.97;0.70;;;16.90;99.90;;;;;;5075019;28;20181;-85
2024/03/16 09:36:29;;;;;;;1.05;0.90;;;16.40;99.90;;;;;;5070310;28;20208;-83
2024/03/16 09:38:54;;;;;;;1.30;0.70;;;16.10;99.90;;;;;;5073533;28;20246;-83
2024/03/16 09:41:20;;;;;;;1.00;0.90;;;17.40;99.90;;;;;;5071197;28;20185;-84
2024/03/16 09:43:47;;;;;;;1.10;1.00;;;18.00;99.90;;;;;;5079442;28;20181;-83
2024/03/16 09:46:13;;;;;;;1.52;0.73;;;18.00;99.50;;;;;;5075038;28;20272;-82
2024/03/16 09:48:39;;;;;;;9.90;5.82;;;18.40;98.50;;;;;;5072795;28;20188;-82
2024/03/16 09:51:05;;;;;;;2.00;0.97;;;20.30;96.80;;;;;;5072306;28;20182;-84
2024/03/16 09:53:32;;;;;;;1.30;0.90;;;20.50;95.60;;;;;;5069512;28;20442;-86
2024/03/16 09:55:59;;;;;;;1.33;0.80;;;20.00;94.60;;;;;;5053382;28;21190;-84
2024/03/16 09:58:24;;;;;;;1.38;0.85;;;19.40;95.20;;;;;;5065593;28;20192;-84
2024/03/16 10:00:53;;;;;;;1.00;0.90;;;18.70;96.70;;;;;;5073693;28;20181;-83
2024/03/16 10:03:19;;;;;;;1.00;0.90;;;18.20;97.80;;;;;;5062248;28;20555;-83
2024/03/16 10:05:46;;;;;;;1.20;0.80;;;17.80;98.40;;;;;;5072091;28;20270;-85
2024/03/16 10:08:17;;;;;;;5.70;3.53;;;17.50;97.90;;;;;;5072632;28;20184;-83
2024/03/16 10:10:43;;;;;;;1.40;0.70;;;17.70;97.60;;;;;;5067189;28;20251;-83
2024/03/16 10:13:11;;;;;;;1.00;0.70;;;19.40;96.80;;;;;;5074928;28;20208;-85
2024/03/16 10:15:45;;;;;;;2.17;1.00;;;17.90;96.70;;;;;;5072007;28;20201;-83
2024/03/16 10:18:14;;;;;;;2.15;1.02;;;17.50;97.90;;;;;;5068146;28;20189;-84
2024/03/16 10:20:40;;;;;;;0.95;0.68;;;17.30;98.60;;;;;;5066903;28;20181;-84
2024/03/16 10:23:15;;;;;;;1.15;0.80;;;17.50;98.60;;;;;;5070986;28;20253;-85
2024/03/16 10:25:47;;;;;;;0.80;0.57;;;17.20;98.80;;;;;;5065481;28;20722;-85
2024/03/16 10:28:15;;;;;;;1.95;0.70;;;17.00;97.80;;;;;;5069166;28;20196;-86
2024/03/16 10:30:43;;;;;;;1.48;0.80;;;17.10;98.10;;;;;;5062391;28;20220;-87
2024/03/16 10:33:09;;;;;;;0.90;0.60;;;16.80;99.10;;;;;;5063944;28;20181;-85
2024/03/16 10:35:34;;;;;;;3.43;1.03;;;16.80;98.20;;;;;;5066943;28;20213;-85
2024/03/16 10:38:02;;;;;;;1.37;1.17;;;17.10;99.40;;;;;;5083335;28;20180;-86
2024/03/16 10:40:28;;;;;;;0.80;0.70;;;17.20;98.80;;;;;;5063383;28;20646;-86
2024/03/16 10:42:55;;;;;;;1.10;0.60;;;17.30;98.90;;;;;;5067814;28;20204;-85
2024/03/16 10:45:21;;;;;;;0.60;0.50;;;17.20;98.30;;;;;;5069063;28;20478;-85
2024/03/16 10:47:53;;;;;;;0.70;0.50;;;17.40;98.50;;;;;;5068647;28;20185;-85
2024/03/16 10:50:20;;;;;;;1.65;0.60;;;17.50;99.10;;;;;;5072714;28;20439;-85
2024/03/16 10:52:50;;;;;;;0.82;0.60;;;17.20;98.00;;;;;;5070419;28;20643;-84
2024/03/16 10:55:22;;;;;;;0.70;0.50;;;16.70;98.70;;;;;;5072626;28;20248;-82
2024/03/16 10:57:49;;;;;;;0.85;0.55;;;16.70;98.40;;;;;;5070845;28;20287;-84
2024/03/16 11:00:20;;;;;;;0.80;0.60;;;16.80;99.10;;;;;;5071366;28;20185;-84
2024/03/16 11:03:00;;;;;;;0.80;0.63;;;17.40;98.50;;;;;;5070167;28;20192;-84
2024/03/16 11:05:33;;;;;;;1.17;0.75;;;17.50;96.90;;;;;;5072937;28;20205;-84
2024/03/16 11:08:02;;;;;;;0.80;0.60;;;18.40;96.40;;;;;;5072910;28;20204;-84
2024/03/16 11:10:41;;;;;;;0.88;0.60;;;18.10;96.00;;;;;;5065072;28;20183;-82
2024/03/16 11:13:13;;;;;;;0.70;0.50;;;17.60;96.80;;;;;;5086430;28;20185;-82
2024/03/16 11:15:40;;;;;;;1.00;0.90;;;17.40;96.00;;;;;;5068240;28;20538;-82
2024/03/16 11:18:21;;;;;;;1.33;0.90;;;17.70;95.30;;;;;;5063873;28;20270;-83
2024/03/16 11:20:50;;;;;;;0.70;0.50;;;19.50;94.40;;;;;;5074898;28;20195;-82
2024/03/16 11:23:32;;;;;;;0.80;0.50;;;19.50;92.60;;;;;;5068714;28;20703;-83
2024/03/16 11:26:19;;;;;;;0.80;0.52;;;19.40;91.70;;;;;;5070643;28;20246;-83
2024/03/16 11:28:46;;;;;;;0.70;0.65;;;19.50;92.50;;;;;;5075228;28;20181;-85
2024/03/16 11:31:37;;;;;;;0.88;0.60;;;20.10;92.20;;;;;;5090099;28;20228;-86
2024/03/16 11:34:04;;;;;;;0.90;0.70;;;20.50;90.80;;;;;;5086872;28;20219;-86
2024/03/16 11:36:30;;;;;;;1.55;0.57;;;20.50;90.50;;;;;;5071637;28;20208;-85
2024/03/16 11:38:56;;;;;;;0.70;0.70;;;19.70;89.50;;;;;;5056879;28;20177;-85
2024/03/16 11:41:22;;;;;;;0.90;0.70;;;20.20;90.40;;;;;;5065435;28;20447;-85
2024/03/16 11:43:48;;;;;;;0.70;0.60;;;19.90;90.00;;;;;;5063283;28;20177;-86
2024/03/16 11:46:19;;;;;;;1.40;0.55;;;19.90;90.90;;;;;;5063124;28;20475;-84
2024/03/16 11:51:28;;;;;;;1.83;0.80;;;18.90;92.30;;;;;;5086710;26;20223;-86
2024/03/16 11:53:54;;;;;;;1.13;0.82;;;18.60;92.60;;;;;;5087600;28;20262;-86
2024/03/16 11:56:22;;;;;;;0.80;0.70;;;18.70;92.80;;;;;;5089327;28;20631;-86
2024/03/16 11:58:50;;;;;;;0.90;0.60;;;18.90;92.90;;;;;;5082772;28;20558;-85
2024/03/16 12:01:18;;;;;;;0.90;0.60;;;18.60;92.60;;;;;;5087898;28;20275;-85
2024/03/16 12:03:45;;;;;;;0.68;0.60;;;18.70;93.20;;;;;;5105334;28;20223;-85
2024/03/16 12:06:12;;;;;;;1.35;1.20;;;18.70;92.70;;;;;;5087939;28;20228;-84
2024/03/16 12:08:38;;;;;;;1.10;0.88;;;17.90;92.50;;;;;;5083390;28;20656;-88
2024/03/16 12:11:07;;;;;;;1.10;0.70;;;18.00;92.80;;;;;;5084071;28;20586;-87
2024/03/16 12:13:33;;;;;;;1.23;0.60;;;18.30;92.50;;;;;;5081718;28;20242;-88
2024/03/16 12:15:59;;;;;;;0.87;0.70;;;18.30;93.20;;;;;;5078573;28;20594;-89
2024/03/16 12:18:25;;;;;;;0.70;0.60;;;17.80;92.50;;;;;;5071111;28;20211;-88
2024/03/16 12:20:51;;;;;;;0.80;0.60;;;17.50;93.00;;;;;;5087466;28;20195;-89
2024/03/16 12:23:19;;;;;;;4.73;0.73;;;17.80;93.70;;;;;;5081729;28;20184;-89
2024/03/16 12:25:46;;;;;;;0.68;0.57;;;17.70;93.60;;;;;;5079895;28;20208;-89
2024/03/16 12:28:11;;;;;;;1.33;1.00;;;17.40;93.40;;;;;;5088131;28;20188;-88
2024/03/16 12:30:37;;;;;;;0.87;0.80;;;17.90;94.00;;;;;;5078929;28;20185;-87
2024/03/16 12:33:09;;;;;;;1.40;1.10;;;17.20;94.20;;;;;;5088993;28;20271;-84
2024/03/16 12:35:40;;;;;;;1.05;0.95;;;17.50;95.10;;;;;;5082206;28;20491;-85
2024/03/16 12:38:08;;;;;;;1.10;0.77;;;17.70;94.60;;;;;;5070323;28;20185;-87
2024/03/16 12:40:34;;;;;;;0.80;0.80;;;17.50;94.50;;;;;;5079952;28;20200;-83
2024/03/16 12:43:00;;;;;;;1.17;0.95;;;17.80;93.60;;;;;;5084818;28;20248;-83
2024/03/16 12:45:25;;;;;;;1.07;0.80;;;18.10;92.90;;;;;;5080363;28;20569;-83
2024/03/16 12:47:51;;;;;;;1.57;0.97;;;18.30;92.80;;;;;;5084251;28;20885;-83
2024/03/16 12:50:17;;;;;;;1.60;1.20;;;18.00;92.90;;;;;;5080085;28;20259;-83
2024/03/16 12:52:43;;;;;;;0.80;0.70;;;18.30;92.50;;;;;;5079917;28;20488;-83
2024/03/16 12:55:11;;;;;;;1.17;1.07;;;18.20;92.20;;;;;;5085800;28;20230;-83
2024/03/16 12:57:37;;;;;;;1.13;0.80;;;18.50;92.30;;;;;;5086769;28;20909;-83
2024/03/16 13:00:05;;;;;;;1.13;1.02;;;18.10;92.40;;;;;;5083264;28;20213;-84